Terminal Aerodrome Forecast
Issued by NWS

Current Version | Previous Version | Graphics & Text | Print | Product List | Glossary On
Versions: 1 2 3 4 5 6 7 8 9 10 11 12 13 14 15 16 17 18 19 20 21 22
000
FTUS41 KILN 291138
TAFLUK
TAF
KLUK 291138Z 2912/3012 00000KT P6SM SCT060 BKN200
      TEMPO 2912/2913 4SM BR
     FM291500 21006KT P6SM BKN045 BKN200
     FM300000 16003KT P6SM VCSH SCT045 OVC150=

USA.gov is the U.S. government's official web portal to all federal, state and local government web resources and services.